Electric City, Washington
Current Conditions -  °F | °C
As of 9:43 PM on Tuesday 25 Nov 2014 (Local Time) from KOMK Reporting Station
Light Snow Light Snow  
Wind Chill: 32°   Ceiling: 1100
Heat Index: 32°   Visibility: 1.2mi
Dew Point: 32°   Wind: 0mph
Humidity: 100%   Direction: NA
Pressure: 30.22"   Gusts: NA
Location:  47.93°N, 119.04°W
Report Text: KOMK 260543Z AUTO 00000KT 1 1/4SM -SN BR FEW006 OVC011 00/00 A3022 RMK AO2 P0004 T00000000
Loading
Personal Weather Stations






























Interactive Weather Map New forecast layout! Learn more

10-Day Weather Forecast

Advertisements
Track Severe Weather on mobile